Time;durP1;ratioP1;P1;durP2;ratioP2;P2;SDS_P1;SDS_P2;PMS_P1;PMS_P2;Temp;Humidity;BMP_temperature;BMP_pressure;BME280_temperature;BME280_humidity;BME280_pressure;Samples;Min_cycle;Max_cycle;Signal;HPM_P1;HPM_P2
2023/04/25 00:01:16;;;;;;;3.53;2.65;;;;;;;;;;4941235;29;20519;-76
2023/04/25 00:03:41;;;;;;;3.10;2.80;;;;;;;;;;4942008;29;20058;-76
2023/04/25 00:06:07;;;;;;;3.38;3.08;;;;;;;;;;4925690;29;20011;-76
2023/04/25 00:08:33;;;;;;;2.92;2.72;;;;;;;;;;4935064;29;20796;-76
2023/04/25 00:10:58;;;;;;;2.00;1.90;;;;;;;;;;4938110;29;20027;-76
2023/04/25 00:13:25;;;;;;;2.17;1.45;;;;;;;;;;4914400;29;20032;-76
2023/04/25 00:15:51;;;;;;;1.58;1.48;;;;;;;;;;4929166;29;20516;-76
2023/04/25 00:18:17;;;;;;;2.13;1.85;;;;;;;;;;4915309;29;20087;-76
2023/04/25 00:20:46;;;;;;;1.90;1.80;;;;;;;;;;4939007;28;20023;-76
2023/04/25 00:23:11;;;;;;;1.83;1.73;;;;;;;;;;4940606;29;20174;-76
2023/04/25 00:25:37;;;;;;;2.33;2.13;;;;;;;;;;4932287;29;21167;-76
2023/04/25 00:28:02;;;;;;;7.63;3.20;;;;;;;;;;4944435;29;20031;-74
2023/04/25 00:30:27;;;;;;;3.47;2.60;;;;;;;;;;4945116;29;20028;-76
2023/04/25 00:32:53;;;;;;;2.67;2.47;;;;;;;;;;4944732;29;20509;-76
2023/04/25 00:35:18;;;;;;;2.75;2.55;;;;;;;;;;4944903;29;20623;-76
2023/04/25 00:37:43;;;;;;;2.95;2.65;;;;;;;;;;4944313;29;20027;-76
2023/04/25 00:40:09;;;;;;;2.42;2.22;;;;;;;;;;4944670;29;20481;-76
2023/04/25 00:42:35;;;;;;;3.85;2.90;;;;;;;;;;4945118;29;20386;-76
2023/04/25 00:45:01;;;;;;;2.65;2.45;;;;;;;;;;4926569;29;20176;-76
2023/04/25 00:47:28;;;;;;;3.45;3.10;;;;;;;;;;4920286;29;20039;-76
2023/04/25 00:49:53;;;;;;;3.00;2.70;;;;;;;;;;4944199;29;20023;-76
2023/04/25 00:52:19;;;;;;;4.18;3.53;;;;;;;;;;4944126;29;20029;-76
2023/04/25 00:54:44;;;;;;;4.15;3.00;;;;;;;;;;4931779;29;20127;-74
2023/04/25 00:57:11;;;;;;;3.83;3.40;;;;;;;;;;4944528;29;20042;-74
2023/04/25 00:59:37;;;;;;;3.75;3.45;;;;;;;;;;4912853;29;20098;-75
2023/04/25 01:02:02;;;;;;;4.95;4.60;;;;;;;;;;4930758;29;20023;-76
2023/04/25 01:04:28;;;;;;;3.30;3.10;;;;;;;;;;4931365;29;20031;-75
2023/04/25 01:06:53;;;;;;;4.30;4.00;;;;;;;;;;4941283;29;20433;-76
2023/04/25 01:09:19;;;;;;;5.07;4.40;;;;;;;;;;4941914;29;20083;-76
2023/04/25 01:11:45;;;;;;;4.00;3.63;;;;;;;;;;4944147;29;20492;-76
2023/04/25 01:14:10;;;;;;;3.85;3.55;;;;;;;;;;4944042;29;20023;-76
2023/04/25 01:16:36;;;;;;;4.13;3.83;;;;;;;;;;4939092;29;20020;-76
2023/04/25 01:19:01;;;;;;;5.90;5.00;;;;;;;;;;4940704;29;20926;-75
2023/04/25 01:21:29;;;;;;;5.63;5.10;;;;;;;;;;4943575;29;20110;-76
2023/04/25 01:23:54;;;;;;;6.22;5.47;;;;;;;;;;4921348;29;20031;-76
2023/04/25 01:26:21;;;;;;;5.57;5.15;;;;;;;;;;4940362;29;20028;-76
2023/04/25 01:28:47;;;;;;;4.88;4.57;;;;;;;;;;4932081;29;20193;-76
2023/04/25 01:31:12;;;;;;;5.30;4.90;;;;;;;;;;4942619;29;20102;-76
2023/04/25 01:33:38;;;;;;;4.63;4.10;;;;;;;;;;4941680;28;20767;-76
2023/04/25 01:36:03;;;;;;;5.13;3.85;;;;;;;;;;4942034;29;20540;-76
2023/04/25 01:38:29;;;;;;;5.57;5.18;;;;;;;;;;4941762;29;20163;-76
2023/04/25 01:40:55;;;;;;;4.85;4.45;;;;;;;;;;4941405;29;20401;-76
2023/04/25 01:43:20;;;;;;;5.38;4.88;;;;;;;;;;4942638;29;20028;-76
2023/04/25 01:45:45;;;;;;;4.88;4.50;;;;;;;;;;4942254;29;20409;-76
2023/04/25 01:48:13;;;;;;;5.35;4.40;;;;;;;;;;4937975;29;20028;-76
2023/04/25 01:50:39;;;;;;;4.78;4.38;;;;;;;;;;4933075;29;20023;-76
2023/04/25 01:53:04;;;;;;;4.45;4.15;;;;;;;;;;4924151;29;20030;-76
2023/04/25 01:55:30;;;;;;;4.53;4.20;;;;;;;;;;4942203;29;20019;-76
2023/04/25 01:57:55;;;;;;;5.38;4.88;;;;;;;;;;4942116;29;20049;-76
2023/04/25 02:00:21;;;;;;;5.95;5.47;;;;;;;;;;4942378;29;20101;-76
2023/04/25 02:02:46;;;;;;;6.55;6.05;;;;;;;;;;4929611;29;20028;-76
2023/04/25 02:05:11;;;;;;;6.10;5.50;;;;;;;;;;4909853;29;20114;-74
2023/04/25 02:07:37;;;;;;;5.80;5.40;;;;;;;;;;4928013;29;20318;-76
2023/04/25 02:10:02;;;;;;;5.63;5.22;;;;;;;;;;4932421;29;20023;-77
2023/04/25 02:12:28;;;;;;;5.88;5.45;;;;;;;;;;4926906;29;20024;-76
2023/04/25 02:14:54;;;;;;;5.25;4.95;;;;;;;;;;4931160;29;20086;-76
2023/04/25 02:17:19;;;;;;;5.70;5.30;;;;;;;;;;4937859;29;20023;-77
2023/04/25 02:19:44;;;;;;;5.47;4.60;;;;;;;;;;4915971;29;20808;-76
2023/04/25 02:22:10;;;;;;;4.78;4.47;;;;;;;;;;4936369;29;20015;-74
2023/04/25 02:24:35;;;;;;;7.70;7.10;;;;;;;;;;4940116;29;20038;-76
2023/04/25 02:27:00;;;;;;;6.63;6.13;;;;;;;;;;4938850;29;20684;-76
2023/04/25 02:29:26;;;;;;;5.95;5.55;;;;;;;;;;4925910;29;20058;-76
2023/04/25 02:31:51;;;;;;;6.65;6.25;;;;;;;;;;4941621;29;20409;-77
2023/04/25 02:34:16;;;;;;;6.40;5.93;;;;;;;;;;4941276;29;20138;-76
2023/04/25 02:36:42;;;;;;;7.38;6.80;;;;;;;;;;4940805;29;20027;-76
2023/04/25 02:39:07;;;;;;;7.90;7.25;;;;;;;;;;4911371;29;20486;-76
2023/04/25 02:41:32;;;;;;;9.98;8.90;;;;;;;;;;4940700;29;20106;-76
2023/04/25 02:43:57;;;;;;;7.07;6.57;;;;;;;;;;4934615;28;20417;-76
2023/04/25 02:46:23;;;;;;;7.65;5.60;;;;;;;;;;4923484;29;20031;-76
2023/04/25 02:48:48;;;;;;;6.38;5.80;;;;;;;;;;4942034;29;20421;-76
2023/04/25 02:51:13;;;;;;;12.63;10.77;;;;;;;;;;4932656;29;20026;-77
2023/04/25 02:53:39;;;;;;;7.40;6.70;;;;;;;;;;4911612;29;20030;-76
2023/04/25 02:56:04;;;;;;;8.02;7.45;;;;;;;;;;4941391;29;20031;-76
2023/04/25 02:58:29;;;;;;;7.60;7.00;;;;;;;;;;4930164;29;20034;-76
2023/04/25 03:00:55;;;;;;;8.55;7.78;;;;;;;;;;4924103;29;20026;-76
2023/04/25 03:03:23;;;;;;;10.23;9.32;;;;;;;;;;4940443;29;20034;-76
2023/04/25 03:05:50;;;;;;;12.23;10.65;;;;;;;;;;4941396;29;20034;-76
2023/04/25 03:08:15;;;;;;;10.88;9.98;;;;;;;;;;4929276;29;20087;-76
2023/04/25 03:10:42;;;;;;;11.10;8.60;;;;;;;;;;4938660;29;20019;-76
2023/04/25 03:13:07;;;;;;;10.75;9.95;;;;;;;;;;4918672;29;20024;-76
2023/04/25 03:15:32;;;;;;;16.75;15.23;;;;;;;;;;4936640;29;20505;-76
2023/04/25 03:17:57;;;;;;;17.02;15.55;;;;;;;;;;4941142;29;20011;-76
2023/04/25 03:20:23;;;;;;;15.77;14.35;;;;;;;;;;4940459;29;20019;-76
2023/04/25 03:22:48;;;;;;;16.15;14.68;;;;;;;;;;4940881;29;20946;-76
2023/04/25 03:25:13;;;;;;;15.30;13.95;;;;;;;;;;4911952;29;20027;-76
2023/04/25 03:27:38;;;;;;;12.77;11.77;;;;;;;;;;4925138;29;20461;-76
2023/04/25 03:30:04;;;;;;;11.23;10.25;;;;;;;;;;4923341;29;20062;-76
2023/04/25 03:32:29;;;;;;;9.95;9.15;;;;;;;;;;4940807;29;20027;-76
2023/04/25 03:34:55;;;;;;;14.85;13.35;;;;;;;;;;4940623;29;20102;-76
2023/04/25 03:37:20;;;;;;;14.73;13.15;;;;;;;;;;4941092;29;20377;-77
2023/04/25 03:39:45;;;;;;;10.75;9.95;;;;;;;;;;4940625;29;20873;-76
2023/04/25 03:42:11;;;;;;;10.30;9.50;;;;;;;;;;4912198;29;20016;-76
2023/04/25 03:44:36;;;;;;;10.98;10.02;;;;;;;;;;4938090;29;20110;-76
2023/04/25 03:47:01;;;;;;;9.95;9.10;;;;;;;;;;4939991;29;20027;-76
2023/04/25 03:49:26;;;;;;;9.90;9.20;;;;;;;;;;4940498;29;20382;-77
2023/04/25 03:51:52;;;;;;;8.93;8.03;;;;;;;;;;4940489;29;20492;-76
2023/04/25 03:54:19;;;;;;;9.88;8.88;;;;;;;;;;4927700;29;20274;-76
2023/04/25 03:56:44;;;;;;;9.43;8.50;;;;;;;;;;4943890;28;20123;-77
2023/04/25 03:59:09;;;;;;;8.70;8.07;;;;;;;;;;4929033;29;20110;-76
2023/04/25 04:01:35;;;;;;;9.13;8.35;;;;;;;;;;4938328;29;20023;-76
2023/04/25 04:04:00;;;;;;;10.88;9.75;;;;;;;;;;4932688;29;20113;-76
2023/04/25 04:06:26;;;;;;;23.83;17.63;;;;;;;;;;4921377;29;20473;-77
2023/04/25 04:08:51;;;;;;;38.60;22.55;;;;;;;;;;4936771;29;20027;-77
2023/04/25 04:11:17;;;;;;;24.67;18.02;;;;;;;;;;4929912;29;20442;-75
2023/04/25 04:13:44;;;;;;;11.40;9.30;;;;;;;;;;4937019;28;20020;-74
2023/04/25 04:16:09;;;;;;;10.60;9.00;;;;;;;;;;4946851;29;20110;-75
2023/04/25 04:18:35;;;;;;;8.35;7.72;;;;;;;;;;4934356;29;20071;-76
2023/04/25 04:21:00;;;;;;;8.27;7.72;;;;;;;;;;4939629;29;20523;-76
2023/04/25 04:23:27;;;;;;;5.75;5.25;;;;;;;;;;4933167;29;20023;-77
2023/04/25 04:25:53;;;;;;;4.85;4.45;;;;;;;;;;4913079;29;20023;-75
2023/04/25 04:28:19;;;;;;;3.58;3.30;;;;;;;;;;4928603;28;20050;-74
2023/04/25 04:30:46;;;;;;;3.72;3.13;;;;;;;;;;4928315;29;20031;-75
2023/04/25 04:33:12;;;;;;;3.15;2.95;;;;;;;;;;4945857;29;20420;-74
2023/04/25 04:35:37;;;;;;;3.08;2.80;;;;;;;;;;4940625;28;20023;-75
2023/04/25 04:38:03;;;;;;;2.63;2.43;;;;;;;;;;4945915;29;20055;-75
2023/04/25 04:40:31;;;;;;;2.50;2.10;;;;;;;;;;4946117;29;20019;-75
2023/04/25 04:42:57;;;;;;;3.05;2.85;;;;;;;;;;4935344;29;20019;-75
2023/04/25 04:45:22;;;;;;;3.63;2.30;;;;;;;;;;4929114;29;20422;-75
2023/04/25 04:47:49;;;;;;;3.42;3.13;;;;;;;;;;4941448;29;20039;-75
2023/04/25 04:50:14;;;;;;;4.20;3.90;;;;;;;;;;4936478;29;20934;-75
2023/04/25 04:52:40;;;;;;;5.47;4.93;;;;;;;;;;4912528;29;20114;-75
2023/04/25 04:55:05;;;;;;;4.23;3.93;;;;;;;;;;4945995;28;20583;-78
2023/04/25 04:57:32;;;;;;;3.67;2.83;;;;;;;;;;4946310;29;20251;-75
2023/04/25 04:59:58;;;;;;;3.63;3.42;;;;;;;;;;4931619;28;20886;-76
2023/04/25 05:02:23;;;;;;;4.18;3.83;;;;;;;;;;4925243;29;20015;-77
2023/04/25 05:04:48;;;;;;;3.60;3.37;;;;;;;;;;4944310;29;20457;-76
2023/04/25 05:07:14;;;;;;;4.57;4.03;;;;;;;;;;4938818;28;20303;-77
2023/04/25 05:09:39;;;;;;;8.20;7.38;;;;;;;;;;4942368;29;20035;-78
2023/04/25 05:12:05;;;;;;;5.53;5.10;;;;;;;;;;4942633;29;20035;-77
2023/04/25 05:14:30;;;;;;;5.25;4.85;;;;;;;;;;4925236;29;20079;-78
2023/04/25 05:16:56;;;;;;;5.28;4.97;;;;;;;;;;4914872;29;20036;-79
2023/04/25 05:19:21;;;;;;;6.18;5.57;;;;;;;;;;4923033;29;20027;-78
2023/04/25 05:21:46;;;;;;;6.63;6.18;;;;;;;;;;4942181;29;20097;-78
2023/04/25 05:24:11;;;;;;;6.25;5.75;;;;;;;;;;4923806;29;20023;-78
2023/04/25 05:26:37;;;;;;;7.75;7.15;;;;;;;;;;4911763;29;20034;-78
2023/04/25 05:29:02;;;;;;;6.53;6.07;;;;;;;;;;4925063;29;20465;-77
2023/04/25 05:31:27;;;;;;;7.05;6.55;;;;;;;;;;4942782;29;20023;-77
2023/04/25 05:33:53;;;;;;;6.73;6.13;;;;;;;;;;4942773;29;20077;-76
2023/04/25 05:36:18;;;;;;;5.38;4.88;;;;;;;;;;4936600;29;20881;-78
2023/04/25 05:38:43;;;;;;;5.50;5.20;;;;;;;;;;4920774;29;20030;-75
2023/04/25 05:41:09;;;;;;;6.40;5.90;;;;;;;;;;4924970;29;20504;-75
2023/04/25 05:43:34;;;;;;;7.07;6.53;;;;;;;;;;4932352;29;20130;-75
2023/04/25 05:46:00;;;;;;;8.52;7.68;;;;;;;;;;4942868;29;20027;-75
2023/04/25 05:48:25;;;;;;;10.07;9.27;;;;;;;;;;4941438;29;20035;-75
2023/04/25 05:50:51;;;;;;;11.38;9.30;;;;;;;;;;4911868;29;20445;-76
2023/04/25 05:53:17;;;;;;;9.27;8.68;;;;;;;;;;4917678;29;20378;-76
2023/04/25 05:55:42;;;;;;;9.48;8.77;;;;;;;;;;4942278;29;20186;-76
2023/04/25 05:58:07;;;;;;;9.13;8.52;;;;;;;;;;4920500;29;20113;-76
2023/04/25 06:00:33;;;;;;;11.23;10.10;;;;;;;;;;4936654;29;20020;-76
2023/04/25 06:02:58;;;;;;;11.07;10.18;;;;;;;;;;4939869;29;20536;-76
2023/04/25 06:05:23;;;;;;;9.90;9.20;;;;;;;;;;4935165;29;20071;-76
2023/04/25 06:07:48;;;;;;;9.95;9.25;;;;;;;;;;4923734;29;20038;-76
2023/04/25 06:10:14;;;;;;;11.38;10.38;;;;;;;;;;4913409;29;20121;-76
2023/04/25 06:12:40;;;;;;;11.43;10.40;;;;;;;;;;4932904;29;20522;-76
2023/04/25 06:15:05;;;;;;;9.88;9.07;;;;;;;;;;4909809;29;20034;-75
2023/04/25 06:17:31;;;;;;;9.88;9.02;;;;;;;;;;4913301;29;20896;-76
2023/04/25 06:19:56;;;;;;;7.70;7.00;;;;;;;;;;4914746;29;20113;-76
2023/04/25 06:22:21;;;;;;;8.40;7.63;;;;;;;;;;4922553;29;20290;-76
2023/04/25 06:24:48;;;;;;;10.68;9.77;;;;;;;;;;4942139;29;20416;-76
2023/04/25 06:27:13;;;;;;;9.35;8.60;;;;;;;;;;4941337;29;20023;-76
2023/04/25 06:29:38;;;;;;;12.35;11.35;;;;;;;;;;4942346;29;20054;-76
2023/04/25 06:32:04;;;;;;;13.30;12.27;;;;;;;;;;4941158;29;20827;-76
2023/04/25 06:34:29;;;;;;;12.68;11.52;;;;;;;;;;4944363;29;20266;-77
2023/04/25 06:36:55;;;;;;;12.93;11.80;;;;;;;;;;4907892;29;20023;-76
2023/04/25 06:39:22;;;;;;;12.63;11.52;;;;;;;;;;4931745;29;20030;-76
2023/04/25 06:41:48;;;;;;;11.05;10.25;;;;;;;;;;4917308;29;20028;-76
2023/04/25 06:44:13;;;;;;;10.18;9.15;;;;;;;;;;4936426;29;20015;-76
2023/04/25 06:46:39;;;;;;;10.30;9.60;;;;;;;;;;4915871;29;20569;-80
2023/04/25 06:49:04;;;;;;;10.48;9.60;;;;;;;;;;4923692;29;20172;-80
2023/04/25 06:51:30;;;;;;;8.98;8.25;;;;;;;;;;4920306;29;20383;-80
2023/04/25 06:53:55;;;;;;;8.85;8.15;;;;;;;;;;4916777;29;20042;-81
2023/04/25 06:56:21;;;;;;;7.43;6.93;;;;;;;;;;4912854;29;20144;-79
2023/04/25 06:58:46;;;;;;;6.43;6.03;;;;;;;;;;4917533;29;20531;-79
2023/04/25 07:01:12;;;;;;;7.13;6.50;;;;;;;;;;4935522;29;20815;-79
2023/04/25 07:03:37;;;;;;;8.77;8.10;;;;;;;;;;4912116;29;20247;-78
2023/04/25 07:06:03;;;;;;;9.15;8.50;;;;;;;;;;4930881;29;20587;-78
2023/04/25 07:08:28;;;;;;;6.90;6.28;;;;;;;;;;4933518;29;20043;-79
2023/04/25 07:10:54;;;;;;;6.75;6.28;;;;;;;;;;4936144;29;20811;-79
2023/04/25 07:13:19;;;;;;;6.75;6.25;;;;;;;;;;4916538;29;20464;-79
2023/04/25 07:15:45;;;;;;;6.13;5.63;;;;;;;;;;4939273;29;20110;-80
2023/04/25 07:18:10;;;;;;;6.10;5.70;;;;;;;;;;4937852;29;20024;-80
2023/04/25 07:20:36;;;;;;;6.82;6.18;;;;;;;;;;4932123;29;20063;-79
2023/04/25 07:23:01;;;;;;;6.22;5.63;;;;;;;;;;4926870;29;20066;-79
2023/04/25 07:25:26;;;;;;;6.93;6.20;;;;;;;;;;4926580;29;20018;-78
2023/04/25 07:27:51;;;;;;;6.50;6.00;;;;;;;;;;4932451;29;20043;-80
2023/04/25 07:30:17;;;;;;;5.65;5.28;;;;;;;;;;4930763;28;20891;-78
2023/04/25 07:32:42;;;;;;;5.20;4.80;;;;;;;;;;4923391;29;20038;-80
2023/04/25 07:35:08;;;;;;;5.97;5.47;;;;;;;;;;4939301;29;20484;-77
2023/04/25 07:37:34;;;;;;;5.88;5.20;;;;;;;;;;4926092;29;20027;-77
2023/04/25 07:39:59;;;;;;;7.63;6.18;;;;;;;;;;4933926;29;20178;-82
2023/04/25 07:42:24;;;;;;;5.63;4.75;;;;;;;;;;4938124;29;20485;-80
2023/04/25 07:44:51;;;;;;;5.68;5.20;;;;;;;;;;4937645;29;20405;-79
2023/04/25 07:47:18;;;;;;;5.57;5.18;;;;;;;;;;4937619;29;20545;-80
2023/04/25 07:49:45;;;;;;;4.75;4.45;;;;;;;;;;4927105;29;20529;-79
2023/04/25 07:52:10;;;;;;;4.45;4.15;;;;;;;;;;4933120;29;20019;-81
2023/04/25 07:54:36;;;;;;;6.00;3.97;;;;;;;;;;4903924;29;20019;-79
2023/04/25 07:57:02;;;;;;;4.53;4.23;;;;;;;;;;4910251;29;20035;-79
2023/04/25 07:59:27;;;;;;;4.30;4.00;;;;;;;;;;4937449;29;20310;-81
2023/04/25 08:01:53;;;;;;;3.65;3.45;;;;;;;;;;4920948;29;20027;-80
2023/04/25 08:04:18;;;;;;;4.38;3.40;;;;;;;;;;4920451;29;20966;-83
2023/04/25 08:06:43;;;;;;;3.13;2.92;;;;;;;;;;4903696;29;20725;-83
2023/04/25 08:09:09;;;;;;;4.03;3.63;;;;;;;;;;4939191;29;20023;-81
2023/04/25 08:11:35;;;;;;;4.15;3.85;;;;;;;;;;4923997;29;20035;-79
2023/04/25 08:14:00;;;;;;;3.90;3.60;;;;;;;;;;4928037;29;20507;-81
2023/04/25 08:16:26;;;;;;;4.10;3.80;;;;;;;;;;4938455;29;20031;-79
2023/04/25 08:18:51;;;;;;;4.22;3.20;;;;;;;;;;4939381;29;20023;-77
2023/04/25 08:21:16;;;;;;;3.30;3.10;;;;;;;;;;4939174;29;20477;-77
2023/04/25 08:23:41;;;;;;;3.38;2.92;;;;;;;;;;4939255;29;20072;-78
2023/04/25 08:26:07;;;;;;;2.65;2.45;;;;;;;;;;4938481;29;20023;-77
2023/04/25 08:28:32;;;;;;;2.40;2.20;;;;;;;;;;4935010;29;20051;-77
2023/04/25 08:30:57;;;;;;;2.60;2.40;;;;;;;;;;4940146;29;20020;-80
2023/04/25 08:33:23;;;;;;;2.58;1.95;;;;;;;;;;4935554;29;20477;-79
2023/04/25 08:35:48;;;;;;;2.53;2.33;;;;;;;;;;4934718;29;20488;-78
2023/04/25 08:38:13;;;;;;;2.63;2.50;;;;;;;;;;4920908;29;20026;-75
2023/04/25 08:40:39;;;;;;;3.20;3.00;;;;;;;;;;4920937;29;20366;-75
2023/04/25 08:43:11;;;;;;;3.15;2.95;;;;;;;;;;4941172;28;20015;-76
2023/04/25 08:45:38;;;;;;;16.48;13.35;;;;;;;;;;4943333;29;20019;-77
2023/04/25 08:48:04;;;;;;;2.97;2.78;;;;;;;;;;4942222;29;20027;-77
2023/04/25 08:50:30;;;;;;;3.30;3.00;;;;;;;;;;4942088;29;20027;-78
2023/04/25 08:52:57;;;;;;;3.38;3.17;;;;;;;;;;4943179;29;20027;-77
2023/04/25 08:55:23;;;;;;;4.47;4.07;;;;;;;;;;4935640;29;20028;-77
2023/04/25 08:57:49;;;;;;;2.80;2.60;;;;;;;;;;4917913;29;20023;-75
2023/04/25 09:00:14;;;;;;;3.30;3.10;;;;;;;;;;4941361;29;20023;-77
2023/04/25 09:02:41;;;;;;;3.33;2.90;;;;;;;;;;4935028;29;20038;-76
2023/04/25 09:05:09;;;;;;;4.10;3.10;;;;;;;;;;4939329;29;20051;-82
2023/04/25 09:07:35;;;;;;;2.85;2.65;;;;;;;;;;4916877;29;20046;-80
2023/04/25 09:10:03;;;;;;;2.73;2.53;;;;;;;;;;4942686;29;20019;-79
2023/04/25 09:12:29;;;;;;;3.72;2.40;;;;;;;;;;4941872;29;20337;-80
2023/04/25 09:15:04;;;;;;;2.08;1.98;;;;;;;;;;4942453;29;20019;-79
2023/04/25 09:17:29;;;;;;;2.90;2.40;;;;;;;;;;4942104;29;20027;-78
2023/04/25 09:19:54;;;;;;;3.05;2.85;;;;;;;;;;4942595;29;20105;-79
2023/04/25 09:22:22;;;;;;;3.17;2.50;;;;;;;;;;4942488;29;20032;-78
2023/04/25 09:24:49;;;;;;;4.03;2.50;;;;;;;;;;4941738;29;20019;-79
2023/04/25 09:27:18;;;;;;;2.85;2.35;;;;;;;;;;4942613;29;20587;-78
2023/04/25 09:29:44;;;;;;;2.53;2.40;;;;;;;;;;4924581;29;20056;-78
2023/04/25 09:32:19;;;;;;;7.68;2.38;;;;;;;;;;4924991;29;20082;-78
2023/04/25 09:35:04;;;;;;;2.13;1.90;;;;;;;;;;4926328;29;20523;-76
2023/04/25 09:37:30;;;;;;;1.05;0.60;;;;;;;;;;4925774;29;20774;-77
2023/04/25 09:39:56;;;;;;;1.83;1.55;;;;;;;;;;4931534;29;20034;-79
2023/04/25 09:42:26;;;;;;;2.05;1.80;;;;;;;;;;4937364;29;20015;-78
2023/04/25 09:44:52;;;;;;;1.67;1.15;;;;;;;;;;4913118;29;20058;-77
2023/04/25 09:47:18;;;;;;;1.45;1.23;;;;;;;;;;4928305;29;20094;-80
2023/04/25 09:49:43;;;;;;;2.03;1.83;;;;;;;;;;4936679;29;20077;-79
2023/04/25 09:52:12;;;;;;;2.17;1.88;;;;;;;;;;4938376;29;20027;-84
2023/04/25 09:54:38;;;;;;;4.18;1.80;;;;;;;;;;4936545;28;20051;-78
2023/04/25 09:57:23;;;;;;;1.55;1.45;;;;;;;;;;4926481;29;20323;-82
2023/04/25 09:59:49;;;;;;;1.80;1.40;;;;;;;;;;4915114;29;20039;-79
2023/04/25 10:02:16;;;;;;;2.65;1.30;;;;;;;;;;4937112;29;20027;-81
2023/04/25 10:04:42;;;;;;;1.30;1.20;;;;;;;;;;4909851;29;20043;-79
2023/04/25 10:07:08;;;;;;;1.10;1.00;;;;;;;;;;4920549;29;20039;-83
2023/04/25 10:09:36;;;;;;;2.25;1.02;;;;;;;;;;4940443;29;20450;-80
2023/04/25 10:12:03;;;;;;;1.48;1.27;;;;;;;;;;4932644;29;20047;-85
2023/04/25 10:14:29;;;;;;;2.10;1.00;;;;;;;;;;4930718;29;20034;-77
2023/04/25 10:16:55;;;;;;;1.38;1.10;;;;;;;;;;4929196;29;20035;-78
2023/04/25 10:19:21;;;;;;;1.10;0.95;;;;;;;;;;4933975;29;20016;-77
2023/04/25 10:21:50;;;;;;;1.20;1.00;;;;;;;;;;4938158;29;20086;-80
2023/04/25 10:24:15;;;;;;;0.77;0.77;;;;;;;;;;4932613;29;20515;-79
2023/04/25 10:26:41;;;;;;;0.80;0.80;;;;;;;;;;4916287;29;20031;-79
2023/04/25 10:29:06;;;;;;;0.90;0.90;;;;;;;;;;4935284;29;20047;-78
2023/04/25 10:31:32;;;;;;;1.70;1.60;;;;;;;;;;4917677;29;20063;-80
2023/04/25 10:33:57;;;;;;;3.42;1.38;;;;;;;;;;4937639;29;20515;-77
2023/04/25 10:36:23;;;;;;;4.13;1.60;;;;;;;;;;4928116;29;20494;-83
2023/04/25 10:38:52;;;;;;;1.30;1.20;;;;;;;;;;4935561;29;20036;-78
2023/04/25 10:41:21;;;;;;;2.78;1.30;;;;;;;;;;4929793;29;20026;-78
2023/04/25 10:43:47;;;;;;;1.55;1.45;;;;;;;;;;4932266;29;20548;-79
2023/04/25 10:46:13;;;;;;;1.25;1.20;;;;;;;;;;4920824;29;20027;-79
2023/04/25 10:48:43;;;;;;;1.90;1.80;;;;;;;;;;4932355;29;20044;-78
2023/04/25 10:51:09;;;;;;;1.23;1.23;;;;;;;;;;4936901;29;20378;-79
2023/04/25 10:53:34;;;;;;;1.70;1.60;;;;;;;;;;4937724;29;20027;-78
2023/04/25 10:56:00;;;;;;;1.60;1.50;;;;;;;;;;4919900;29;20027;-79
2023/04/25 10:58:26;;;;;;;1.60;1.50;;;;;;;;;;4920731;29;20643;-79
2023/04/25 11:00:51;;;;;;;1.75;1.38;;;;;;;;;;4937695;29;20081;-77
2023/04/25 11:03:16;;;;;;;1.83;0.88;;;;;;;;;;4933333;29;20035;-78
2023/04/25 11:05:44;;;;;;;1.50;1.40;;;;;;;;;;4920400;29;20414;-78
2023/04/25 11:08:13;;;;;;;1.30;1.20;;;;;;;;;;4935303;29;20478;-77
2023/04/25 11:10:39;;;;;;;;;;;;;;;;;;4914444;29;20023;-79
2023/04/25 11:13:04;;;;;;;1.10;1.00;;;;;;;;;;4934496;29;19914;-78
2023/04/25 11:15:30;;;;;;;2.55;1.08;;;;;;;;;;4918239;29;20023;-76
2023/04/25 11:17:55;;;;;;;3.58;1.40;;;;;;;;;;4932321;29;20126;-77
2023/04/25 11:20:21;;;;;;;3.63;1.20;;;;;;;;;;4916209;29;20023;-76
2023/04/25 11:22:46;;;;;;;2.10;1.20;;;;;;;;;;4929829;29;20414;-77
2023/04/25 11:25:13;;;;;;;1.05;0.90;;;;;;;;;;4937931;29;20033;-77
2023/04/25 11:27:40;;;;;;;1.27;0.77;;;;;;;;;;4929418;29;20032;-76
2023/04/25 11:30:15;;;;;;;0.60;0.55;;;;;;;;;;4933262;29;20051;-78
2023/04/25 11:32:41;;;;;;;0.73;0.50;;;;;;;;;;4927214;29;20055;-78
2023/04/25 11:35:07;;;;;;;0.70;0.70;;;;;;;;;;4921757;29;20027;-83
2023/04/25 11:37:33;;;;;;;1.50;0.52;;;;;;;;;;4921336;29;20023;-82
2023/04/25 11:39:59;;;;;;;1.17;0.40;;;;;;;;;;4935731;29;20055;-78
2023/04/25 11:42:25;;;;;;;0.75;0.70;;;;;;;;;;4940842;29;20054;-79
2023/04/25 11:44:51;;;;;;;0.90;0.70;;;;;;;;;;4928043;29;20031;-83
2023/04/25 11:47:16;;;;;;;0.75;0.75;;;;;;;;;;4932875;29;20150;-79
2023/04/25 11:49:41;;;;;;;0.93;0.70;;;;;;;;;;4911909;29;20036;-78
2023/04/25 11:52:07;;;;;;;3.00;0.57;;;;;;;;;;4926395;29;20055;-79
2023/04/25 11:54:34;;;;;;;2.03;0.80;;;;;;;;;;4931456;29;20020;-79
2023/04/25 11:57:01;;;;;;;0.70;0.52;;;;;;;;;;4926105;29;20062;-79
2023/04/25 11:59:27;;;;;;;1.75;0.75;;;;;;;;;;4913874;29;20031;-79
2023/04/25 12:01:52;;;;;;;0.63;0.60;;;;;;;;;;4927397;29;20031;-80
2023/04/25 12:04:23;;;;;;;0.93;0.77;;;;;;;;;;4918142;29;20114;-81
2023/04/25 12:06:50;;;;;;;1.17;0.90;;;;;;;;;;4939423;29;20050;-81
2023/04/25 12:09:17;;;;;;;2.03;1.50;;;;;;;;;;4915672;29;20028;-81
2023/04/25 12:11:52;;;;;;;2.25;0.70;;;;;;;;;;4934642;29;20127;-79
2023/04/25 12:14:26;;;;;;;1.27;0.80;;;;;;;;;;4929718;29;20027;-78
2023/04/25 12:16:54;;;;;;;0.73;0.73;;;;;;;;;;4936435;29;20032;-78
2023/04/25 12:19:20;;;;;;;0.70;0.50;;;;;;;;;;4940690;29;20023;-78
2023/04/25 12:21:45;;;;;;;1.85;1.20;;;;;;;;;;4916138;29;20040;-80
2023/04/25 12:24:22;;;;;;;2.05;1.83;;;;;;;;;;4924322;29;20050;-82
2023/04/25 12:26:47;;;;;;;1.77;0.77;;;;;;;;;;4942157;29;20113;-78
2023/04/25 12:29:20;;;;;;;1.80;1.60;;;;;;;;;;4912139;29;20138;-79
2023/04/25 12:31:46;;;;;;;1.88;0.75;;;;;;;;;;4938631;29;20031;-80
2023/04/25 12:34:12;;;;;;;1.52;1.00;;;;;;;;;;4930831;29;20508;-82
2023/04/25 12:36:38;;;;;;;2.22;1.13;;;;;;;;;;4936753;29;20649;-80
2023/04/25 12:39:04;;;;;;;1.05;0.88;;;;;;;;;;4933588;29;20422;-81
2023/04/25 12:41:29;;;;;;;1.90;1.15;;;;;;;;;;4918308;29;20031;-80
2023/04/25 12:43:55;;;;;;;2.10;1.27;;;;;;;;;;4937253;29;20159;-80
2023/04/25 12:46:20;;;;;;;4.72;1.85;;;;;;;;;;4943026;29;20030;-80
2023/04/25 12:48:45;;;;;;;2.33;2.15;;;;;;;;;;4937184;29;20150;-80
2023/04/25 12:51:11;;;;;;;1.80;1.70;;;;;;;;;;4933892;29;20298;-77
2023/04/25 12:53:37;;;;;;;0.93;0.90;;;;;;;;;;4934246;29;20038;-78
2023/04/25 12:56:02;;;;;;;7.18;0.80;;;;;;;;;;4925746;29;20293;-78
2023/04/25 12:58:28;;;;;;;2.15;1.30;;;;;;;;;;4923953;29;20007;-78
2023/04/25 13:00:53;;;;;;;2.75;0.80;;;;;;;;;;4943271;29;20444;-79
2023/04/25 13:03:19;;;;;;;2.00;1.20;;;;;;;;;;4940341;29;20401;-78
2023/04/25 13:05:44;;;;;;;2.78;1.10;;;;;;;;;;4935801;29;20119;-78
2023/04/25 13:08:09;;;;;;;1.10;1.00;;;;;;;;;;4932173;29;20443;-79
2023/04/25 13:10:36;;;;;;;1.00;0.93;;;;;;;;;;4923487;29;20118;-78
2023/04/25 13:13:02;;;;;;;1.17;1.00;;;;;;;;;;4931014;29;20019;-76
2023/04/25 13:15:27;;;;;;;1.05;0.95;;;;;;;;;;4910290;29;20038;-78
2023/04/25 13:17:53;;;;;;;2.92;1.20;;;;;;;;;;4926589;29;20024;-78
2023/04/25 13:20:22;;;;;;;2.38;1.13;;;;;;;;;;4907646;29;20056;-77
2023/04/25 13:22:47;;;;;;;2.03;1.33;;;;;;;;;;4923949;29;20036;-77
2023/04/25 13:25:12;;;;;;;2.35;1.70;;;;;;;;;;4928209;29;20405;-80
2023/04/25 13:27:40;;;;;;;2.33;1.92;;;;;;;;;;4921943;29;20573;-77
2023/04/25 13:30:07;;;;;;;2.78;1.00;;;;;;;;;;4921857;29;20048;-77
2023/04/25 13:32:36;;;;;;;2.08;1.05;;;;;;;;;;4923963;29;20428;-77
2023/04/25 13:35:02;;;;;;;2.58;0.88;;;;;;;;;;4937975;29;20027;-78
2023/04/25 13:37:29;;;;;;;1.88;1.05;;;;;;;;;;4937973;29;20016;-78
2023/04/25 13:39:55;;;;;;;3.70;0.60;;;;;;;;;;4917644;29;20030;-77
2023/04/25 13:42:20;;;;;;;0.70;0.50;;;;;;;;;;4924178;29;20020;-78
2023/04/25 13:44:46;;;;;;;1.85;0.60;;;;;;;;;;4924924;29;20031;-83
2023/04/25 13:47:11;;;;;;;1.10;0.90;;;;;;;;;;4925831;29;20103;-79
2023/04/25 13:49:36;;;;;;;0.80;0.73;;;;;;;;;;4924216;29;20490;-79
2023/04/25 13:52:02;;;;;;;2.00;0.60;;;;;;;;;;4928466;29;20090;-80
2023/04/25 13:54:27;;;;;;;0.82;0.65;;;;;;;;;;4925823;29;20267;-82
2023/04/25 13:56:55;;;;;;;0.93;0.50;;;;;;;;;;4929385;29;20098;-83
2023/04/25 13:59:20;;;;;;;1.17;1.08;;;;;;;;;;4924157;29;20020;-80
2023/04/25 14:01:46;;;;;;;1.70;1.60;;;;;;;;;;4923437;29;20046;-78
2023/04/25 14:04:11;;;;;;;2.50;0.60;;;;;;;;;;4931558;29;20102;-82
2023/04/25 14:06:37;;;;;;;0.60;0.57;;;;;;;;;;4937649;29;20027;-81
2023/04/25 14:09:04;;;;;;;1.08;0.82;;;;;;;;;;4941086;29;20043;-80
2023/04/25 14:11:29;;;;;;;1.55;0.60;;;;;;;;;;4926530;29;20077;-80
2023/04/25 14:13:54;;;;;;;0.98;0.50;;;;;;;;;;4945120;29;20118;-79
2023/04/25 14:16:20;;;;;;;0.63;0.45;;;;;;;;;;4940681;29;20015;-79
2023/04/25 14:18:45;;;;;;;1.15;0.75;;;;;;;;;;4931296;29;20132;-79
2023/04/25 14:21:11;;;;;;;0.65;0.40;;;;;;;;;;4951739;29;20023;-78
2023/04/25 14:23:36;;;;;;;0.80;0.60;;;;;;;;;;4921158;29;20506;-78
2023/04/25 14:26:01;;;;;;;4.60;0.90;;;;;;;;;;4944971;29;20267;-78
2023/04/25 14:28:27;;;;;;;2.38;0.80;;;;;;;;;;4921094;29;20082;-78
2023/04/25 14:30:52;;;;;;;1.25;1.08;;;;;;;;;;4945715;29;20030;-78
2023/04/25 14:33:17;;;;;;;1.63;0.93;;;;;;;;;;4919343;29;20038;-78